Time;durP1;ratioP1;P1;durP2;ratioP2;P2;SDS_P1;SDS_P2;PMS_P1;PMS_P2;Temp;Humidity;BMP_temperature;BMP_pressure;BME280_temperature;BME280_humidity;BME280_pressure;Samples;Min_cycle;Max_cycle;Signal;HPM_P1;HPM_P2
2022/12/31 00:00:13;;;;;;;;;74.67;55.00;;;;;1.57;94.45;98502.53;4899724;28;102320;-69
2022/12/31 00:02:40;;;;;;;;;82.75;63.75;;;;;1.30;94.05;98500.66;4930456;28;104276;-69
2022/12/31 00:05:08;;;;;;;;;95.50;68.25;;;;;0.97;94.16;98501.16;4932743;28;102294;-70
2022/12/31 00:07:36;;;;;;;;;82.75;61.00;;;;;0.78;94.94;98497.56;4933860;28;102356;-69
2022/12/31 00:10:03;;;;;;;;;86.75;63.25;;;;;0.65;94.78;98496.16;4924397;28;102391;-67
2022/12/31 00:12:30;;;;;;;;;95.50;69.25;;;;;0.46;96.53;98491.69;4931195;28;103991;-67
2022/12/31 00:14:57;;;;;;;;;84.25;61.75;;;;;0.46;96.95;98478.41;4928515;28;102280;-69
2022/12/31 00:17:24;;;;;;;;;76.25;64.00;;;;;0.24;97.31;98490.16;4908832;28;102254;-70
2022/12/31 00:19:51;;;;;;;;;91.25;70.50;;;;;0.22;98.74;98475.34;4929987;28;102344;-69
2022/12/31 00:22:18;;;;;;;;;88.50;65.00;;;;;0.26;99.61;98487.38;4929989;28;103982;-68
2022/12/31 00:24:45;;;;;;;;;104.50;82.00;;;;;0.16;99.88;98502.47;4928111;28;102213;-69
2022/12/31 00:27:12;;;;;;;;;105.25;76.75;;;;;0.26;100.00;98504.16;4930898;28;102383;-69
2022/12/31 00:29:39;;;;;;;;;98.00;70.75;;;;;0.39;100.00;98509.19;4925260;28;102091;-69
2022/12/31 00:32:06;;;;;;;;;93.00;67.50;;;;;0.32;100.00;98479.66;4926557;28;102725;-68
2022/12/31 00:34:33;;;;;;;;;79.50;58.25;;;;;0.51;100.00;98508.06;4930758;28;102793;-70
2022/12/31 00:37:00;;;;;;;;;71.67;53.00;;;;;0.55;99.59;98501.50;4925442;28;102228;-70
2022/12/31 00:39:27;;;;;;;;;54.67;42.67;;;;;0.51;97.81;98501.91;4933066;28;102125;-69
2022/12/31 00:41:53;;;;;;;;;48.33;37.67;;;;;0.45;97.05;98504.16;4914950;28;103993;-69
2022/12/31 00:44:21;;;;;;;;;36.00;25.33;;;;;0.44;96.28;98513.13;4926956;28;102552;-69
2022/12/31 00:46:48;;;;;;;;;69.33;50.33;;;;;0.32;97.27;98524.03;4918246;28;101939;-69
2022/12/31 00:49:15;;;;;;;;;64.33;52.33;;;;;0.30;97.59;98528.66;4899780;28;102984;-68
2022/12/31 00:51:42;;;;;;;;;78.75;59.75;;;;;0.26;98.87;98535.22;4922729;28;104271;-70
2022/12/31 00:54:09;;;;;;;;;74.33;49.00;;;;;0.32;99.07;98529.34;4931214;28;102296;-68
2022/12/31 00:56:36;;;;;;;;;48.00;34.67;;;;;0.34;98.92;98527.41;4932345;28;102532;-68
2022/12/31 00:59:03;;;;;;;;;37.00;30.67;;;;;0.27;97.67;98521.78;4934232;28;102499;-67
2022/12/31 01:01:37;;;;;;;;;29.67;20.33;;;;;0.27;96.36;98536.91;4930660;28;104175;-68
2022/12/31 01:04:10;;;;;;;;;34.33;28.67;;;;;0.22;95.79;98528.50;4935926;28;102129;-68
2022/12/31 01:06:38;;;;;;;;;23.00;17.00;;;;;0.17;95.13;98528.91;4932174;28;102258;-69
2022/12/31 01:09:06;;;;;;;;;33.67;26.00;;;;;0.06;95.53;98544.97;4935449;28;102324;-69
2022/12/31 01:11:33;;;;;;;;;42.67;35.00;;;;;0.02;95.96;98537.41;4934323;28;108542;-69
2022/12/31 01:14:08;;;;;;;;;38.00;32.33;;;;;0.05;96.17;98547.75;4926938;28;102502;-69
2022/12/31 01:16:41;;;;;;;;;67.67;51.67;;;;;-0.02;97.41;98536.84;4915030;28;102025;-68
2022/12/31 01:19:12;;;;;;;;;63.33;48.67;;;;;-0.02;97.22;98536.84;4915345;28;102387;-68
2022/12/31 01:21:40;;;;;;;;;43.33;38.33;;;;;-0.05;97.42;98523.84;4930027;28;104008;-69
2022/12/31 01:24:09;;;;;;;;;32.00;24.00;;;;;0.02;97.30;98532.09;4917309;28;102307;-69
2022/12/31 01:26:36;;;;;;;;;31.33;26.33;;;;;0.13;97.15;98547.94;4934225;28;102075;-69
2022/12/31 01:29:05;;;;;;;;;22.33;20.00;;;;;0.18;97.03;98551.84;4936387;28;102531;-68
2022/12/31 01:31:33;;;;;;;;;20.00;18.33;;;;;0.24;97.65;98558.44;4934113;28;103788;-68
2022/12/31 01:34:00;;;;;;;;;20.00;14.33;;;;;0.24;96.87;98561.09;4935556;28;102584;-69
2022/12/31 01:36:30;;;;;;;;;37.33;24.67;;;;;0.28;97.01;98565.16;4927894;28;102263;-68
2022/12/31 01:38:59;;;;;;;;;22.67;19.67;;;;;0.33;97.51;98552.28;4924794;28;103076;-69
2022/12/31 01:41:30;;;;;;;;;18.33;16.00;;;;;0.43;97.96;98555.81;4922263;28;104219;-68
2022/12/31 01:44:12;;;;;;;;;19.67;16.33;;;;;0.55;98.48;98546.72;4922727;28;102060;-69
2022/12/31 01:46:45;;;;;;;;;27.67;21.67;;;;;0.66;98.79;98543.09;4916327;28;102178;-69
2022/12/31 01:49:16;;;;;;;;;45.00;39.33;;;;;0.74;99.48;98530.75;4925937;28;101996;-69
2022/12/31 01:51:48;;;;;;;;;53.33;43.33;;;;;0.84;99.59;98526.28;4933929;28;103974;-68
2022/12/31 01:54:20;;;;;;;;;45.00;31.67;;;;;0.89;99.62;98540.00;4928277;28;102637;-69
2022/12/31 01:56:51;;;;;;;;;35.00;30.67;;;;;0.93;98.85;98534.38;4931998;28;102125;-69
2022/12/31 01:59:21;;;;;;;;;67.67;48.00;;;;;0.92;98.85;98527.38;4935742;28;105318;-69
2022/12/31 02:01:52;;;;;;;;;60.00;46.67;;;;;0.96;99.32;98536.75;4910439;28;103941;-69
2022/12/31 02:04:22;;;;;;;;;57.33;47.00;;;;;1.03;99.34;98537.88;4926141;28;103328;-68
2022/12/31 02:06:56;;;;;;;;;53.33;38.67;;;;;1.12;99.23;98535.19;4916142;28;102312;-69
2022/12/31 02:09:43;;;;;;;;;46.33;39.33;;;;;1.19;99.68;98527.47;4929458;28;102557;-69
2022/12/31 02:12:27;;;;;;;;;38.33;30.33;;;;;1.32;100.00;98520.00;4925555;28;108883;-69
2022/12/31 02:15:14;;;;;;;;;35.00;28.00;;;;;1.35;99.76;98530.38;4920800;28;102434;-68
2022/12/31 02:18:33;;;;;;;;;24.00;21.33;;;;;1.38;99.38;98543.38;4930066;28;102075;-69
2022/12/31 02:21:58;;;;;;;;;46.67;39.33;;;;;1.43;99.28;98557.13;4922912;28;102103;-69
2022/12/31 02:25:13;;;;;;;;;36.67;30.00;;;;;1.51;98.78;98549.25;4921435;28;108649;-69
2022/12/31 02:28:23;;;;;;;;;24.67;18.33;;;;;1.63;99.61;98544.56;4844485;28;102550;-68
2022/12/31 02:31:10;;;;;;;;;20.00;14.00;;;;;1.71;99.28;98545.50;4852280;28;103472;-69
2022/12/31 02:33:40;;;;;;;;;18.00;16.67;;;;;1.76;99.81;98543.22;4857267;28;102403;-69
2022/12/31 02:36:22;;;;;;;;;17.00;9.75;;;;;1.81;99.17;98532.13;4858995;28;108742;-70
2022/12/31 02:38:51;;;;;;;;;33.00;26.67;;;;;1.90;99.37;98530.41;4848392;28;102295;-69
2022/12/31 02:44:25;;;;;;;;;28.67;24.67;;;;;2.08;100.00;98512.63;4856219;28;102519;-69
2022/12/31 02:46:55;;;;;;;;;39.33;30.00;;;;;2.19;100.00;98499.94;4853257;28;107209;-69
2022/12/31 02:49:40;;;;;;;;;48.00;37.67;;;;;2.37;100.00;98497.25;4856366;28;105164;-69
2022/12/31 02:52:07;;;;;;;;;41.00;34.67;;;;;2.51;100.00;98487.88;4873948;28;102216;-68
2022/12/31 02:54:57;;;;;;;;;46.67;34.00;;;;;2.60;100.00;98471.78;4919878;28;102550;-69
2022/12/31 02:57:41;;;;;;;;;43.33;35.67;;;;;2.68;100.00;98479.88;4913125;28;108676;-69
2022/12/31 03:02:59;;;;;;;;;32.33;27.67;;;;;2.68;98.80;98452.34;4914391;28;102415;-68
2022/12/31 03:05:31;;;;;;;;;38.00;30.33;;;;;2.67;98.34;98440.81;4931727;28;102121;-68
2022/12/31 03:07:58;;;;;;;;;38.67;31.00;;;;;2.65;97.96;98441.97;4932634;28;104145;-69
2022/12/31 03:10:25;;;;;;;;;32.33;24.67;;;;;2.66;97.98;98460.47;4932457;28;102510;-69
2022/12/31 03:12:52;;;;;;;;;32.50;28.50;;;;;2.69;98.35;98470.03;4903976;28;102016;-69
2022/12/31 03:15:23;;;;;;;;;25.67;20.67;;;;;2.68;98.08;98479.88;4923249;28;102023;-68
2022/12/31 03:17:55;;;;;;;;;23.50;21.00;;;;;2.70;99.22;98488.53;4924225;28;103653;-68
2022/12/31 03:23:20;;;;;;;;;17.50;16.50;;;;;2.54;98.48;98468.88;4913531;28;102133;-69
2022/12/31 03:25:47;;;;;;;;;9.75;7.50;;;;;2.79;98.61;98512.66;4932898;28;102188;-69
2022/12/31 03:28:18;;;;;;;;;20.00;15.75;;;;;2.83;98.94;98514.88;4927262;28;104045;-69
2022/12/31 03:30:52;;;;;;;;;21.00;18.00;;;;;2.90;99.13;98509.72;4930142;28;102227;-68
2022/12/31 03:33:20;;;;;;;;;21.00;19.75;;;;;2.95;99.59;98518.13;4914389;28;102714;-68
2022/12/31 03:35:48;;;;;;;;;22.00;18.75;;;;;2.97;98.80;98516.16;4923467;28;102593;-69
2022/12/31 03:38:16;;;;;;;;;30.75;23.25;;;;;3.07;98.85;98519.53;4914096;28;103979;-69
2022/12/31 03:40:49;;;;;;;;;20.75;20.00;;;;;3.15;99.44;98516.94;4930426;28;102386;-69
2022/12/31 03:43:18;;;;;;;;;25.25;19.75;;;;;3.21;99.19;98516.31;4918012;28;102114;-68
2022/12/31 03:45:52;;;;;;;;;27.25;20.25;;;;;3.27;99.84;98526.38;4915223;28;102388;-69
2022/12/31 03:48:22;;;;;;;;;29.00;16.00;;;;;3.34;99.43;98529.22;4926795;28;104479;-69
2022/12/31 03:50:49;;;;;;;;;28.00;20.75;;;;;3.40;99.27;98523.28;4933993;28;102050;-68
2022/12/31 03:53:17;;;;;;;;;27.50;20.00;;;;;3.48;99.94;98516.13;4932564;28;102230;-69
2022/12/31 03:55:44;;;;;;;;;19.25;16.75;;;;;3.56;99.30;98534.03;4934192;28;102386;-68
2022/12/31 03:58:11;;;;;;;;;23.25;20.00;;;;;3.62;99.83;98525.41;4930195;28;104196;-69
2022/12/31 04:00:38;;;;;;;;;27.50;25.00;;;;;3.69;99.78;98522.94;4933182;28;102269;-68
2022/12/31 04:03:05;;;;;;;;;28.75;23.75;;;;;3.77;99.73;98520.31;4932707;28;102760;-69
2022/12/31 04:05:32;;;;;;;;;30.00;21.50;;;;;3.83;99.59;98525.84;4933844;28;102221;-68
2022/12/31 04:07:59;;;;;;;;;21.00;19.50;;;;;3.90;98.98;98529.56;4930026;28;103691;-69
2022/12/31 04:10:26;;;;;;;;;24.75;19.75;;;;;3.90;98.86;98518.03;4924292;28;102401;-69
2022/12/31 04:12:53;;;;;;;;;18.25;15.00;;;;;3.97;98.52;98533.25;4932876;28;102191;-69
2022/12/31 04:15:20;;;;;;;;;17.00;16.75;;;;;4.09;98.17;98535.66;4926385;28;102396;-68
2022/12/31 04:17:48;;;;;;;;;29.25;23.50;;;;;4.07;98.46;98526.94;4912982;28;104202;-69
2022/12/31 04:20:15;;;;;;;;;22.25;19.00;;;;;4.20;98.02;98538.00;4920041;28;102514;-69
2022/12/31 04:22:42;;;;;;;;;21.25;20.00;;;;;4.24;98.01;98534.00;4934063;28;101982;-69
2022/12/31 04:25:10;;;;;;;;;19.50;17.25;;;;;4.28;97.51;98540.72;4915872;28;102503;-68
2022/12/31 04:27:38;;;;;;;;;13.50;9.50;;;;;4.32;97.45;98536.72;4912509;28;104447;-69
2022/12/31 04:30:06;;;;;;;;;16.25;12.25;;;;;4.35;97.10;98545.25;4924736;28;102266;-69
2022/12/31 04:32:33;;;;;;;;;15.75;12.50;;;;;4.36;97.11;98538.91;4891847;28;101893;-69
2022/12/31 04:35:00;;;;;;;;;17.50;15.00;;;;;4.38;96.11;98552.97;4919042;28;102279;-68
2022/12/31 04:37:28;;;;;;;;;15.00;12.75;;;;;4.40;96.72;98556.31;4926826;28;110632;-68
2022/12/31 04:39:54;;;;;;;;;19.75;17.00;;;;;4.42;96.77;98554.31;4931628;28;102548;-69
2022/12/31 04:42:29;;;;;;;;;18.75;15.00;;;;;4.43;96.70;98556.00;4929297;28;102295;-69
2022/12/31 04:44:56;;;;;;;;;16.00;15.50;;;;;4.45;96.40;98558.50;4912070;28;102089;-68
2022/12/31 04:47:23;;;;;;;;;23.25;15.50;;;;;4.44;96.65;98560.34;4923805;28;104068;-68
2022/12/31 04:49:50;;;;;;;;;21.25;16.50;;;;;4.49;97.83;98566.06;4897705;28;101963;-69
2022/12/31 04:52:17;;;;;;;;;17.50;15.75;;;;;4.53;97.46;98555.00;4916429;28;102225;-68
2022/12/31 04:54:44;;;;;;;;;23.50;18.50;;;;;4.49;97.45;98547.31;4931229;28;102623;-68
2022/12/31 04:57:11;;;;;;;;;24.00;19.50;;;;;4.61;98.27;98561.22;4933082;28;104149;-68
2022/12/31 04:59:38;;;;;;;;;20.00;19.75;;;;;4.66;98.41;98560.72;4918157;28;102106;-68
2022/12/31 05:02:05;;;;;;;;;23.75;16.50;;;;;4.71;98.17;98577.13;4931909;28;101803;-69
2022/12/31 05:04:32;;;;;;;;;19.75;16.00;;;;;4.75;98.65;98568.59;4929230;28;102880;-68
2022/12/31 05:06:59;;;;;;;;;17.50;13.75;;;;;4.80;98.76;98574.31;4911713;28;104082;-69
2022/12/31 05:09:27;;;;;;;;;16.50;14.00;;;;;4.84;98.62;98570.28;4925398;28;103004;-68
2022/12/31 05:11:54;;;;;;;;;21.50;16.50;;;;;4.88;98.41;98578.84;4921044;28;102046;-68
2022/12/31 05:14:21;;;;;;;;;21.25;14.50;;;;;4.91;98.40;98582.00;4933052;28;102217;-69
2022/12/31 05:16:48;;;;;;;;;17.25;15.00;;;;;4.95;98.39;98574.50;4922988;28;104601;-68
2022/12/31 05:19:15;;;;;;;;;16.00;14.75;;;;;4.99;98.47;98573.16;4916875;28;102145;-68
2022/12/31 05:21:42;;;;;;;;;15.00;11.00;;;;;5.04;98.14;98578.03;4933022;28;102166;-70
2022/12/31 05:24:09;;;;;;;;;14.00;13.00;;;;;5.07;98.08;98580.34;4933113;28;102284;-69
2022/12/31 05:26:36;;;;;;;;;14.00;12.75;;;;;5.10;97.78;98566.63;4915119;28;104051;-69
2022/12/31 05:29:03;;;;;;;;;13.50;13.00;;;;;5.12;98.03;98559.25;4926912;28;102083;-68
2022/12/31 05:31:30;;;;;;;;;10.50;7.75;;;;;5.14;98.25;98560.75;4931386;28;102366;-68
2022/12/31 05:33:57;;;;;;;;;14.75;11.00;;;;;5.18;97.76;98567.44;4922906;28;102125;-68
2022/12/31 05:36:24;;;;;;;;;13.50;13.25;;;;;5.20;97.76;98554.72;4931081;28;104048;-70
2022/12/31 05:38:51;;;;;;;;;18.50;17.25;;;;;5.22;98.13;98550.03;4930638;28;102367;-68
2022/12/31 05:41:18;;;;;;;;;26.50;16.75;;;;;5.25;98.08;98564.94;4919441;28;104680;-68
2022/12/31 05:43:45;;;;;;;;;19.50;13.25;;;;;5.26;98.16;98559.44;4896472;28;102431;-68
2022/12/31 05:46:12;;;;;;;;;22.75;16.00;;;;;5.31;98.19;98562.41;4901036;28;103987;-69
2022/12/31 05:48:39;;;;;;;;;11.00;8.50;;;;;5.35;98.57;98563.78;4901195;28;102348;-69
2022/12/31 05:51:06;;;;;;;;;14.25;14.25;;;;;5.38;98.58;98565.28;4933906;28;102129;-69
2022/12/31 05:53:33;;;;;;;;;20.25;13.00;;;;;5.42;98.68;98568.44;4927302;28;105193;-69
2022/12/31 05:56:00;;;;;;;;;14.75;12.00;;;;;5.49;98.78;98569.47;4931675;28;104253;-69
2022/12/31 05:58:27;;;;;;;;;14.50;13.00;;;;;5.56;98.98;98575.81;4931565;28;102448;-68
2022/12/31 06:00:54;;;;;;;;;16.00;13.50;;;;;5.61;98.86;98586.88;4927945;28;102217;-69
2022/12/31 06:03:21;;;;;;;;;15.75;12.75;;;;;5.64;98.64;98584.69;4930038;28;102040;-69
2022/12/31 06:05:48;;;;;;;;;10.50;9.50;;;;;5.70;98.58;98585.84;4933278;28;104482;-69
2022/12/31 06:08:15;;;;;;;;;20.50;15.25;;;;;5.74;98.62;98587.19;4934824;28;102500;-69
2022/12/31 06:10:42;;;;;;;;;16.25;13.00;;;;;5.81;99.05;98586.31;4936427;28;102273;-69
2022/12/31 06:13:09;;;;;;;;;11.50;7.25;;;;;5.88;98.67;98585.66;4934846;28;102846;-69
2022/12/31 06:15:38;;;;;;;;;14.75;11.25;;;;;5.93;98.28;98589.53;4925839;28;103927;-68
2022/12/31 06:18:05;;;;;;;;;16.25;11.50;;;;;5.98;98.33;98597.91;4925126;28;102222;-69
2022/12/31 06:20:36;;;;;;;;;14.50;12.50;;;;;6.02;98.06;98606.44;4931644;28;102124;-68
2022/12/31 06:23:04;;;;;;;;;16.00;11.75;;;;;6.06;97.45;98603.22;4910871;28;102612;-69
2022/12/31 06:25:33;;;;;;;;;13.00;9.50;;;;;6.11;97.56;98608.94;4912964;28;104302;-67
2022/12/31 06:28:00;;;;;;;;;10.75;9.25;;;;;6.16;97.11;98589.63;4932233;28;102205;-68
2022/12/31 06:30:27;;;;;;;;;10.00;10.00;;;;;6.18;96.91;98596.47;4928945;28;102855;-69
2022/12/31 06:32:54;;;;;;;;;10.25;9.00;;;;;6.16;96.62;98589.63;4926101;28;102513;-69
2022/12/31 06:35:21;;;;;;;;;9.25;8.00;;;;;6.25;96.31;98596.63;4928236;28;103657;-69
2022/12/31 06:37:50;;;;;;;;;9.00;8.25;;;;;6.26;96.19;98603.66;4922566;28;102463;-69
2022/12/31 06:40:17;;;;;;;;;11.25;8.75;;;;;6.27;96.19;98581.16;4909934;28;102171;-68
2022/12/31 06:42:44;;;;;;;;;14.00;11.25;;;;;6.29;95.84;98584.53;4915702;28;102378;-69
2022/12/31 06:45:11;;;;;;;;;12.75;9.00;;;;;6.33;96.02;98575.09;4936756;28;104019;-69
2022/12/31 06:47:38;;;;;;;;;14.50;9.25;;;;;6.36;95.55;98590.03;4933514;28;102300;-68
2022/12/31 06:50:05;;;;;;;;;9.25;7.75;;;;;6.38;95.30;98575.44;4933868;28;102170;-68
2022/12/31 06:52:33;;;;;;;;;14.25;12.00;;;;;6.39;95.12;98574.41;4934417;28;102922;-69
2022/12/31 06:55:00;;;;;;;;;9.50;7.25;;;;;6.43;95.10;98596.38;4933349;28;104003;-69
2022/12/31 06:57:27;;;;;;;;;14.25;7.75;;;;;6.46;94.83;98596.88;4928683;28;102090;-69
2022/12/31 06:59:54;;;;;;;;;12.25;11.00;;;;;6.50;95.10;98602.72;4931717;28;102154;-69
2022/12/31 07:02:39;;;;;;;;;11.50;8.25;;;;;6.54;94.69;98598.66;4933439;28;102192;-68
2022/12/31 07:06:08;;;;;;;;;11.50;10.00;;;;;6.61;94.58;98610.41;4918317;28;104178;-69
2022/12/31 07:09:19;;;;;;;;;10.50;10.50;;;;;6.65;94.30;98617.94;4893114;28;102395;-69
2022/12/31 07:12:07;;;;;;;;;8.75;7.25;;;;;6.69;93.83;98624.63;4870495;28;102435;-69
2022/12/31 07:14:51;;;;;;;;;9.25;7.00;;;;;6.75;94.01;98614.19;4862593;28;102477;-69
2022/12/31 07:17:30;;;;;;;;;9.00;6.50;;;;;6.79;93.94;98623.56;4908795;28;110893;-68
2022/12/31 07:20:08;;;;;;;;;12.00;8.00;;;;;6.82;93.11;98618.66;4913448;28;102424;-69
2022/12/31 07:22:36;;;;;;;;;11.50;10.00;;;;;6.86;93.39;98625.38;4932034;28;102190;-68
2022/12/31 07:25:05;;;;;;;;;6.00;6.00;;;;;6.90;93.07;98626.69;4931725;28;102133;-69
2022/12/31 07:27:38;;;;;;;;;11.75;8.25;;;;;6.94;92.74;98625.31;4920452;28;104185;-69
2022/12/31 07:30:10;;;;;;;;;7.50;7.00;;;;;7.00;92.19;98635.34;4891985;28;102043;-69
2022/12/31 07:32:59;;;;;;;;;11.75;11.25;;;;;7.08;91.81;98646.06;4931161;28;102142;-69
2022/12/31 07:36:02;;;;;;;;;13.50;7.75;;;;;7.15;92.19;98654.25;4932066;28;102468;-69
2022/12/31 07:38:34;;;;;;;;;11.75;11.00;;;;;7.22;91.35;98651.69;4926164;28;108599;-69
2022/12/31 07:41:33;;;;;;;;;18.50;14.75;;;;;7.26;91.23;98634.16;4895505;28;102406;-69
2022/12/31 07:44:20;;;;;;;;;18.25;15.00;;;;;7.31;91.11;98635.31;4915865;28;102489;-69
2022/12/31 07:46:55;;;;;;;;;12.25;9.00;;;;;7.37;90.70;98633.75;4922674;28;102123;-68
2022/12/31 07:49:24;;;;;;;;;12.25;8.25;;;;;7.41;90.15;98629.69;4932583;28;104219;-68
2022/12/31 07:51:52;;;;;;;;;2.75;2.00;;;;;7.42;90.15;98634.06;4931389;28;103142;-69
2022/12/31 07:54:20;;;;;;;;;11.00;8.00;;;;;7.40;89.91;98642.31;4931667;28;102312;-69
2022/12/31 07:56:48;;;;;;;;;7.25;6.25;;;;;7.46;89.52;98646.13;4931518;28;102458;-69
2022/12/31 07:59:32;;;;;;;;;10.00;8.00;;;;;7.51;89.92;98659.88;4929564;28;103746;-68
2022/12/31 08:02:05;;;;;;;;;8.00;7.00;;;;;7.57;90.06;98645.69;4932249;28;102447;-69
2022/12/31 08:04:51;;;;;;;;;7.25;7.25;;;;;7.59;89.46;98640.97;4930609;28;102342;-69
2022/12/31 08:07:35;;;;;;;;;8.00;6.00;;;;;7.65;88.82;98639.44;4911789;28;102573;-70
2022/12/31 08:10:26;;;;;;;;;6.25;6.00;;;;;7.68;88.80;98631.81;4925717;28;104222;-69
2022/12/31 08:13:00;;;;;;;;;6.75;6.75;;;;;7.73;89.02;98644.72;4903473;28;102189;-68
2022/12/31 08:15:28;;;;;;;;;9.75;8.00;;;;;7.73;88.38;98648.25;4903244;28;102079;-69
2022/12/31 08:17:56;;;;;;;;;8.25;8.00;;;;;7.73;88.45;98640.19;4896073;28;102368;-68
2022/12/31 08:20:25;;;;;;;;;9.00;8.00;;;;;7.80;88.27;98643.81;4905700;28;103517;-68
2022/12/31 08:23:04;;;;;;;;;7.00;7.00;;;;;7.87;88.09;98644.78;4911084;28;102234;-69
2022/12/31 08:25:33;;;;;;;;;9.25;8.50;;;;;7.96;87.72;98651.75;4876499;28;102093;-68
2022/12/31 08:28:20;;;;;;;;;15.00;10.75;;;;;7.88;87.51;98626.75;4896848;28;102540;-69
2022/12/31 08:31:02;;;;;;;;;15.25;12.50;;;;;8.08;86.72;98650.28;4889781;28;108551;-69
2022/12/31 08:33:32;;;;;;;;;17.00;14.50;;;;;8.22;86.76;98651.31;4919406;28;101991;-68
2022/12/31 08:36:18;;;;;;;;;13.00;9.00;;;;;8.35;87.18;98642.59;4913438;28;109230;-69
2022/12/31 08:39:00;;;;;;;;;13.00;9.00;;;;;8.49;85.83;98644.47;4928726;28;102280;-68
2022/12/31 08:41:33;;;;;;;;;9.50;9.25;;;;;8.61;85.88;98648.34;4899334;28;104055;-68
2022/12/31 08:44:29;;;;;;;;;10.25;8.00;;;;;8.78;85.89;98647.13;4929571;28;102181;-69
2022/12/31 08:46:59;;;;;;;;;9.75;7.75;;;;;8.90;84.60;98664.50;4930949;28;101996;-69
2022/12/31 08:49:28;;;;;;;;;9.00;7.50;;;;;9.05;84.05;98661.75;4929891;28;102107;-69
2022/12/31 08:51:56;;;;;;;;;8.50;7.25;;;;;9.12;83.29;98664.53;4913341;28;103978;-69
2022/12/31 08:54:24;;;;;;;;;7.00;6.00;;;;;9.16;82.82;98655.03;4913330;28;102053;-69
2022/12/31 08:57:05;;;;;;;;;4.50;4.00;;;;;9.24;82.52;98671.94;4930573;28;102376;-69
2022/12/31 09:00:04;;;;;;;;;10.25;9.75;;;;;9.29;82.49;98668.66;4929452;28;102148;-69
2022/12/31 09:03:08;;;;;;;;;7.00;6.00;;;;;9.31;82.74;98656.66;4911133;28;108710;-69
2022/12/31 09:05:53;;;;;;;;;4.50;4.00;;;;;9.32;82.40;98658.31;4923750;28;102472;-69
2022/12/31 09:08:32;;;;;;;;;5.50;5.00;;;;;9.39;82.53;98667.34;4911684;28;102233;-69
2022/12/31 09:11:19;;;;;;;;;7.50;7.00;;;;;9.52;81.90;98649.59;4917899;28;102265;-69
2022/12/31 09:14:10;;;;;;;;;7.25;5.00;;;;;9.70;82.10;98649.97;4906765;28;108711;-69
2022/12/31 09:16:46;;;;;;;;;4.00;3.00;;;;;9.82;81.32;98641.13;4914133;28;102313;-69
2022/12/31 09:19:13;;;;;;;;;3.50;3.50;;;;;9.98;81.09;98639.19;4924294;28;102976;-69
2022/12/31 09:21:44;;;;;;;;;4.25;4.25;;;;;10.13;80.40;98637.25;4930656;28;102477;-69
2022/12/31 09:24:12;;;;;;;;;11.00;8.50;;;;;10.23;79.39;98624.22;4925535;28;108687;-69
2022/12/31 09:26:58;;;;;;;;;10.50;8.50;;;;;10.37;79.10;98633.25;4933702;28;102210;-68
2022/12/31 09:29:43;;;;;;;;;5.25;4.00;;;;;10.55;78.76;98626.28;4931510;28;103374;-69
2022/12/31 09:32:23;;;;;;;;;4.00;4.00;;;;;10.67;77.78;98613.03;4925896;28;102357;-68
2022/12/31 09:34:59;;;;;;;;;3.75;3.75;;;;;10.78;77.92;98623.28;4933246;28;108650;-69
2022/12/31 09:37:44;;;;;;;;;4.75;3.00;;;;;10.87;76.56;98630.19;4926057;28;102681;-69
2022/12/31 09:40:26;;;;;;;;;3.25;3.00;;;;;11.00;77.44;98634.78;4895233;28;104605;-70
2022/12/31 09:43:17;;;;;;;;;3.00;3.00;;;;;11.12;77.22;98639.41;4927211;28;103208;-69
2022/12/31 09:46:08;;;;;;;;;0.00;0.00;;;;;11.10;76.51;98648.78;4925221;28;109174;-70
2022/12/31 09:49:03;;;;;;;;;4.00;4.00;;;;;11.15;76.62;98649.84;4913268;28;102227;-70
2022/12/31 09:51:55;;;;;;;;;4.50;4.50;;;;;11.08;76.76;98659.78;4927813;28;102242;-69
2022/12/31 09:54:43;;;;;;;;;4.50;3.00;;;;;11.10;76.37;98665.00;4934768;28;102323;-70
2022/12/31 09:57:34;;;;;;;;;3.00;3.00;;;;;11.06;77.16;98656.47;4919521;28;108767;-70
2022/12/31 10:00:04;;;;;;;;;4.50;3.75;;;;;11.11;77.52;98648.59;4914070;28;101971;-69
2022/12/31 10:03:08;;;;;;;;;4.50;2.50;;;;;11.14;77.14;98641.91;4933259;28;102257;-70
2022/12/31 10:06:13;;;;;;;;;3.00;3.00;;;;;11.17;77.20;98627.97;4932700;28;101990;-69
2022/12/31 10:09:09;;;;;;;;;5.25;2.00;;;;;11.07;77.74;98625.69;4904414;28;110120;-69
2022/12/31 10:11:51;;;;;;;;;4.00;3.00;;;;;11.08;78.21;98621.91;4913092;28;102358;-69
2022/12/31 10:14:35;;;;;;;;;5.50;4.00;;;;;11.08;78.16;98621.06;4916831;28;102106;-69
2022/12/31 10:17:24;;;;;;;;;3.00;3.00;;;;;11.10;78.35;98622.56;4922283;28;102059;-68
2022/12/31 10:20:24;;;;;;;;;4.00;3.00;;;;;11.16;78.75;98610.09;4927816;28;109597;-70
2022/12/31 10:23:17;;;;;;;;;2.00;2.00;;;;;11.25;78.60;98611.56;4911438;28;101941;-69
2022/12/31 10:26:13;;;;;;;;;3.50;3.00;;;;;11.43;77.39;98611.81;4928548;28;102911;-69
2022/12/31 10:28:58;;;;;;;;;3.00;2.00;;;;;11.48;77.23;98617.41;4915470;28;101996;-70
2022/12/31 10:32:07;;;;;;;;;4.50;2.25;;;;;11.52;76.31;98613.28;4930597;28;108665;-70
2022/12/31 10:34:54;;;;;;;;;3.50;2.00;;;;;11.63;76.97;98626.19;4882332;28;102445;-69
2022/12/31 10:37:42;;;;;;;;;2.25;1.50;;;;;11.55;76.93;98612.84;4925126;28;102202;-70
2022/12/31 10:40:19;;;;;;;;;3.00;3.00;;;;;11.62;76.84;98629.09;4932510;28;102021;-70
2022/12/31 10:43:04;;;;;;;;;5.75;4.00;;;;;11.60;76.50;98640.16;4919347;28;108702;-69
2022/12/31 10:45:49;;;;;;;;;2.75;2.00;;;;;11.41;76.59;98632.81;4932865;28;102269;-68
2022/12/31 10:48:21;;;;;;;;;3.00;2.75;;;;;11.49;77.21;98657.00;4931866;28;102158;-68
2022/12/31 10:51:03;;;;;;;;;5.25;5.00;;;;;11.36;76.67;98664.25;4915097;28;102055;-68
2022/12/31 10:53:36;;;;;;;;;6.00;5.50;;;;;11.37;77.20;98666.78;4922681;28;103993;-68
2022/12/31 10:56:24;;;;;;;;;8.00;7.25;;;;;11.41;77.57;98664.47;4933070;28;102312;-69
2022/12/31 10:59:32;;;;;;;;;7.00;5.75;;;;;11.42;77.01;98653.47;4929275;28;108634;-70
2022/12/31 11:02:29;;;;;;;;;4.25;3.50;;;;;11.48;77.20;98639.06;4930797;28;102107;-69
2022/12/31 11:05:17;;;;;;;;;4.50;3.75;;;;;11.52;76.96;98640.34;4910095;28;108581;-70
2022/12/31 11:07:54;;;;;;;;;3.50;3.00;;;;;11.58;77.10;98644.09;4924295;28;102111;-69
2022/12/31 11:10:37;;;;;;;;;5.75;4.00;;;;;11.60;76.68;98626.63;4926972;28;101880;-69
2022/12/31 11:13:50;;;;;;;;;4.75;4.75;;;;;11.71;76.04;98632.47;4920918;28;102319;-69
2022/12/31 11:16:36;;;;;;;;;2.00;2.00;;;;;11.74;77.18;98615.81;4839229;28;108413;-67
2022/12/31 11:19:16;;;;;;;;;3.00;3.00;;;;;11.84;76.04;98635.22;4893894;28;102320;-69
2022/12/31 11:22:22;;;;;;;;;2.50;2.50;;;;;11.87;76.27;98632.06;4915333;28;102361;-70
2022/12/31 11:25:11;;;;;;;;;3.00;3.00;;;;;11.91;75.40;98628.75;4909345;28;102027;-70
2022/12/31 11:27:41;;;;;;;;;3.50;2.75;;;;;11.93;75.23;98625.81;4923591;28;104305;-69
2022/12/31 11:30:46;;;;;;;;;3.00;2.75;;;;;11.97;75.53;98616.25;4903609;28;102190;-68
2022/12/31 11:33:34;;;;;;;;;3.00;2.75;;;;;11.96;75.56;98617.28;4920625;28;103876;-69
2022/12/31 11:36:13;;;;;;;;;5.00;4.00;;;;;11.95;75.88;98621.03;4914692;28;102178;-68
2022/12/31 11:38:46;;;;;;;;;2.00;2.00;;;;;11.98;75.58;98623.28;4904596;28;104003;-68
2022/12/31 11:41:26;;;;;;;;;4.00;3.00;;;;;11.95;75.01;98618.31;4922099;28;102400;-69
2022/12/31 11:44:16;;;;;;;;;2.00;2.00;;;;;11.98;75.96;98620.59;4925663;28;102853;-69
2022/12/31 11:46:46;;;;;;;;;3.00;3.00;;;;;11.99;75.35;98611.44;4906200;28;102305;-69
2022/12/31 11:49:22;;;;;;;;;4.00;3.00;;;;;12.03;75.71;98605.38;4920832;28;104015;-69
2022/12/31 11:52:13;;;;;;;;;4.75;4.00;;;;;12.06;75.19;98604.97;4904964;28;102076;-69
2022/12/31 11:55:41;;;;;;;;;4.50;3.50;;;;;12.16;74.89;98609.94;4925479;28;102412;-69
2022/12/31 11:58:17;;;;;;;;;3.50;3.00;;;;;12.27;74.57;98614.72;4827128;28;102093;-70
2022/12/31 12:00:54;;;;;;;;;4.00;3.00;;;;;12.34;74.91;98625.53;4906987;28;104043;-71
2022/12/31 12:03:23;;;;;;;;;7.75;5.00;;;;;12.34;74.01;98618.25;4918071;28;102066;-70
2022/12/31 12:05:50;;;;;;;;;4.25;4.00;;;;;12.40;74.47;98612.00;4923937;28;102310;-68
2022/12/31 12:08:17;;;;;;;;;3.75;2.00;;;;;12.45;73.45;98611.34;4933381;28;102779;-69